sensor_id;sensor_type;location;lat;lon;timestamp;P1;durP1;ratioP1;P2;durP2;ratioP2
56321;SDS011;42227;6.376;-10.782;2024-03-07T00:01:10;71.43;;;30.35;;
56321;SDS011;42227;6.376;-10.782;2024-03-07T00:03:38;71.18;;;27.50;;
56321;SDS011;42227;6.376;-10.782;2024-03-07T00:06:07;81.18;;;26.83;;
56321;SDS011;42227;6.376;-10.782;2024-03-07T00:08:35;66.95;;;26.80;;
56321;SDS011;42227;6.376;-10.782;2024-03-07T00:11:04;57.25;;;23.25;;
56321;SDS011;42227;6.376;-10.782;2024-03-07T00:13:32;69.00;;;23.23;;
56321;SDS011;42227;6.376;-10.782;2024-03-07T00:16:01;73.97;;;24.23;;
56321;SDS011;42227;6.376;-10.782;2024-03-07T00:18:30;66.65;;;22.27;;
56321;SDS011;42227;6.376;-10.782;2024-03-07T00:20:58;71.03;;;22.65;;
56321;SDS011;42227;6.376;-10.782;2024-03-07T00:23:27;85.93;;;26.58;;
56321;SDS011;42227;6.376;-10.782;2024-03-07T00:25:55;65.68;;;22.38;;
56321;SDS011;42227;6.376;-10.782;2024-03-07T00:28:24;66.93;;;23.52;;
56321;SDS011;42227;6.376;-10.782;2024-03-07T00:30:52;71.15;;;27.15;;
56321;SDS011;42227;6.376;-10.782;2024-03-07T00:33:21;79.47;;;27.13;;
56321;SDS011;42227;6.376;-10.782;2024-03-07T00:35:49;64.47;;;26.30;;
56321;SDS011;42227;6.376;-10.782;2024-03-07T00:38:17;63.33;;;24.55;;
56321;SDS011;42227;6.376;-10.782;2024-03-07T00:40:46;63.70;;;25.00;;
56321;SDS011;42227;6.376;-10.782;2024-03-07T00:43:14;75.50;;;25.42;;
56321;SDS011;42227;6.376;-10.782;2024-03-07T00:45:43;70.55;;;26.10;;
56321;SDS011;42227;6.376;-10.782;2024-03-07T00:48:11;82.10;;;24.15;;
56321;SDS011;42227;6.376;-10.782;2024-03-07T00:50:40;71.80;;;26.27;;
56321;SDS011;42227;6.376;-10.782;2024-03-07T00:53:10;66.60;;;26.13;;
56321;SDS011;42227;6.376;-10.782;2024-03-07T00:55:38;70.68;;;25.23;;
56321;SDS011;42227;6.376;-10.782;2024-03-07T00:58:07;67.38;;;24.58;;
56321;SDS011;42227;6.376;-10.782;2024-03-07T01:00:35;68.22;;;26.65;;
56321;SDS011;42227;6.376;-10.782;2024-03-07T01:03:04;83.45;;;26.88;;
56321;SDS011;42227;6.376;-10.782;2024-03-07T01:05:32;62.78;;;26.05;;
56321;SDS011;42227;6.376;-10.782;2024-03-07T01:08:00;87.43;;;28.42;;
56321;SDS011;42227;6.376;-10.782;2024-03-07T01:10:29;73.47;;;27.65;;
56321;SDS011;42227;6.376;-10.782;2024-03-07T01:12:57;87.55;;;31.33;;
56321;SDS011;42227;6.376;-10.782;2024-03-07T01:15:26;74.47;;;28.38;;
56321;SDS011;42227;6.376;-10.782;2024-03-07T01:17:55;90.50;;;28.20;;
56321;SDS011;42227;6.376;-10.782;2024-03-07T01:20:23;78.82;;;27.25;;
56321;SDS011;42227;6.376;-10.782;2024-03-07T01:22:52;72.68;;;25.75;;
56321;SDS011;42227;6.376;-10.782;2024-03-07T01:25:20;81.45;;;27.50;;
56321;SDS011;42227;6.376;-10.782;2024-03-07T01:27:48;87.13;;;28.40;;
56321;SDS011;42227;6.376;-10.782;2024-03-07T01:30:17;82.72;;;30.52;;
56321;SDS011;42227;6.376;-10.782;2024-03-07T01:32:45;77.78;;;27.00;;
56321;SDS011;42227;6.376;-10.782;2024-03-07T01:35:13;84.82;;;28.48;;
56321;SDS011;42227;6.376;-10.782;2024-03-07T01:37:42;81.45;;;24.67;;
56321;SDS011;42227;6.376;-10.782;2024-03-07T01:40:10;110.88;;;28.95;;
56321;SDS011;42227;6.376;-10.782;2024-03-07T01:42:40;70.80;;;26.13;;
56321;SDS011;42227;6.376;-10.782;2024-03-07T01:45:08;76.13;;;28.67;;
56321;SDS011;42227;6.376;-10.782;2024-03-07T01:47:37;110.35;;;28.55;;
56321;SDS011;42227;6.376;-10.782;2024-03-07T01:50:06;66.03;;;26.20;;
56321;SDS011;42227;6.376;-10.782;2024-03-07T01:52:39;76.45;;;26.92;;
56321;SDS011;42227;6.376;-10.782;2024-03-07T01:55:09;75.47;;;26.52;;
56321;SDS011;42227;6.376;-10.782;2024-03-07T02:00:09;73.03;;;28.05;;
56321;SDS011;42227;6.376;-10.782;2024-03-07T02:02:37;73.55;;;25.70;;
56321;SDS011;42227;6.376;-10.782;2024-03-07T02:05:06;79.13;;;26.60;;
56321;SDS011;42227;6.376;-10.782;2024-03-07T02:07:35;79.57;;;26.08;;
56321;SDS011;42227;6.376;-10.782;2024-03-07T02:10:04;79.97;;;28.00;;
56321;SDS011;42227;6.376;-10.782;2024-03-07T02:12:33;68.10;;;26.77;;
56321;SDS011;42227;6.376;-10.782;2024-03-07T02:15:02;68.85;;;24.73;;
56321;SDS011;42227;6.376;-10.782;2024-03-07T02:17:31;78.20;;;25.23;;
56321;SDS011;42227;6.376;-10.782;2024-03-07T02:19:59;86.40;;;25.20;;
56321;SDS011;42227;6.376;-10.782;2024-03-07T02:22:28;78.10;;;27.65;;
56321;SDS011;42227;6.376;-10.782;2024-03-07T02:24:56;96.03;;;30.40;;
56321;SDS011;42227;6.376;-10.782;2024-03-07T02:27:24;68.78;;;25.67;;
56321;SDS011;42227;6.376;-10.782;2024-03-07T02:29:53;85.95;;;27.10;;
56321;SDS011;42227;6.376;-10.782;2024-03-07T02:32:21;68.38;;;24.77;;
56321;SDS011;42227;6.376;-10.782;2024-03-07T02:34:49;77.32;;;25.65;;
56321;SDS011;42227;6.376;-10.782;2024-03-07T02:37:18;73.72;;;27.77;;
56321;SDS011;42227;6.376;-10.782;2024-03-07T02:39:46;62.55;;;22.08;;
56321;SDS011;42227;6.376;-10.782;2024-03-07T02:42:15;78.65;;;28.00;;
56321;SDS011;42227;6.376;-10.782;2024-03-07T02:44:43;56.92;;;25.25;;
56321;SDS011;42227;6.376;-10.782;2024-03-07T02:47:11;63.67;;;25.08;;
56321;SDS011;42227;6.376;-10.782;2024-03-07T02:49:40;61.47;;;24.30;;
56321;SDS011;42227;6.376;-10.782;2024-03-07T02:52:09;82.78;;;30.42;;
56321;SDS011;42227;6.376;-10.782;2024-03-07T02:54:37;98.22;;;28.50;;
56321;SDS011;42227;6.376;-10.782;2024-03-07T02:57:05;84.05;;;29.02;;
56321;SDS011;42227;6.376;-10.782;2024-03-07T02:59:34;74.78;;;30.60;;
56321;SDS011;42227;6.376;-10.782;2024-03-07T03:02:02;84.28;;;29.33;;
56321;SDS011;42227;6.376;-10.782;2024-03-07T03:04:30;73.35;;;28.77;;
56321;SDS011;42227;6.376;-10.782;2024-03-07T03:06:59;82.70;;;30.08;;
56321;SDS011;42227;6.376;-10.782;2024-03-07T03:09:28;78.72;;;27.92;;
56321;SDS011;42227;6.376;-10.782;2024-03-07T03:11:56;61.35;;;28.50;;
56321;SDS011;42227;6.376;-10.782;2024-03-07T03:14:24;82.70;;;29.70;;
56321;SDS011;42227;6.376;-10.782;2024-03-07T03:16:53;78.72;;;32.15;;
56321;SDS011;42227;6.376;-10.782;2024-03-07T03:19:21;71.65;;;28.13;;
56321;SDS011;42227;6.376;-10.782;2024-03-07T03:21:50;86.75;;;30.65;;
56321;SDS011;42227;6.376;-10.782;2024-03-07T03:24:18;83.88;;;28.02;;
56321;SDS011;42227;6.376;-10.782;2024-03-07T03:26:46;97.05;;;33.65;;
56321;SDS011;42227;6.376;-10.782;2024-03-07T03:29:15;86.15;;;30.98;;
56321;SDS011;42227;6.376;-10.782;2024-03-07T03:31:43;88.32;;;29.83;;
56321;SDS011;42227;6.376;-10.782;2024-03-07T03:34:12;86.30;;;31.65;;
56321;SDS011;42227;6.376;-10.782;2024-03-07T03:36:40;66.85;;;27.83;;
56321;SDS011;42227;6.376;-10.782;2024-03-07T03:39:09;80.82;;;29.80;;
56321;SDS011;42227;6.376;-10.782;2024-03-07T03:41:37;77.15;;;30.20;;
56321;SDS011;42227;6.376;-10.782;2024-03-07T03:44:06;68.35;;;28.48;;
56321;SDS011;42227;6.376;-10.782;2024-03-07T03:46:36;82.68;;;30.42;;
56321;SDS011;42227;6.376;-10.782;2024-03-07T03:49:04;63.90;;;27.65;;
56321;SDS011;42227;6.376;-10.782;2024-03-07T03:51:33;57.22;;;22.33;;
56321;SDS011;42227;6.376;-10.782;2024-03-07T03:54:01;80.57;;;26.50;;
56321;SDS011;42227;6.376;-10.782;2024-03-07T03:56:29;79.00;;;29.08;;
56321;SDS011;42227;6.376;-10.782;2024-03-07T03:58:58;77.32;;;31.02;;
56321;SDS011;42227;6.376;-10.782;2024-03-07T04:01:26;96.35;;;31.35;;
56321;SDS011;42227;6.376;-10.782;2024-03-07T04:03:54;83.38;;;29.15;;
56321;SDS011;42227;6.376;-10.782;2024-03-07T04:06:23;62.42;;;25.13;;
56321;SDS011;42227;6.376;-10.782;2024-03-07T04:08:51;66.57;;;24.70;;
56321;SDS011;42227;6.376;-10.782;2024-03-07T04:11:20;52.42;;;23.95;;
56321;SDS011;42227;6.376;-10.782;2024-03-07T04:13:48;63.60;;;25.65;;
56321;SDS011;42227;6.376;-10.782;2024-03-07T04:16:17;69.05;;;26.50;;
56321;SDS011;42227;6.376;-10.782;2024-03-07T04:18:45;70.65;;;25.80;;
56321;SDS011;42227;6.376;-10.782;2024-03-07T04:21:13;73.07;;;28.63;;
56321;SDS011;42227;6.376;-10.782;2024-03-07T04:23:41;76.57;;;29.50;;
56321;SDS011;42227;6.376;-10.782;2024-03-07T04:26:10;90.97;;;30.75;;
56321;SDS011;42227;6.376;-10.782;2024-03-07T04:28:38;94.65;;;31.27;;
56321;SDS011;42227;6.376;-10.782;2024-03-07T04:31:07;85.07;;;29.90;;
56321;SDS011;42227;6.376;-10.782;2024-03-07T04:33:35;82.95;;;29.20;;
56321;SDS011;42227;6.376;-10.782;2024-03-07T04:36:04;78.20;;;26.88;;
56321;SDS011;42227;6.376;-10.782;2024-03-07T04:38:32;79.55;;;30.60;;
56321;SDS011;42227;6.376;-10.782;2024-03-07T04:41:01;75.93;;;26.70;;
56321;SDS011;42227;6.376;-10.782;2024-03-07T04:43:29;70.43;;;26.63;;
56321;SDS011;42227;6.376;-10.782;2024-03-07T04:45:58;69.57;;;27.42;;
56321;SDS011;42227;6.376;-10.782;2024-03-07T04:48:26;74.43;;;26.48;;
56321;SDS011;42227;6.376;-10.782;2024-03-07T04:50:54;76.43;;;27.95;;
56321;SDS011;42227;6.376;-10.782;2024-03-07T04:53:23;59.03;;;23.95;;
56321;SDS011;42227;6.376;-10.782;2024-03-07T04:55:52;61.67;;;29.85;;
56321;SDS011;42227;6.376;-10.782;2024-03-07T04:58:20;80.68;;;30.10;;
56321;SDS011;42227;6.376;-10.782;2024-03-07T05:00:49;76.43;;;33.63;;
56321;SDS011;42227;6.376;-10.782;2024-03-07T05:03:17;82.38;;;29.85;;
56321;SDS011;42227;6.376;-10.782;2024-03-07T05:05:45;84.57;;;30.83;;
56321;SDS011;42227;6.376;-10.782;2024-03-07T05:08:14;84.13;;;30.67;;
56321;SDS011;42227;6.376;-10.782;2024-03-07T05:10:45;91.22;;;33.80;;
56321;SDS011;42227;6.376;-10.782;2024-03-07T05:13:13;76.80;;;31.90;;
56321;SDS011;42227;6.376;-10.782;2024-03-07T05:15:42;82.82;;;32.10;;
56321;SDS011;42227;6.376;-10.782;2024-03-07T05:18:10;98.95;;;34.97;;
56321;SDS011;42227;6.376;-10.782;2024-03-07T05:20:39;91.10;;;35.22;;
56321;SDS011;42227;6.376;-10.782;2024-03-07T05:23:07;92.55;;;34.38;;
56321;SDS011;42227;6.376;-10.782;2024-03-07T05:25:36;77.35;;;32.05;;
56321;SDS011;42227;6.376;-10.782;2024-03-07T05:28:04;86.65;;;34.35;;
56321;SDS011;42227;6.376;-10.782;2024-03-07T05:30:33;77.18;;;33.30;;
56321;SDS011;42227;6.376;-10.782;2024-03-07T05:33:01;84.10;;;38.40;;
56321;SDS011;42227;6.376;-10.782;2024-03-07T05:35:30;85.05;;;32.83;;
56321;SDS011;42227;6.376;-10.782;2024-03-07T05:37:58;93.00;;;30.90;;
56321;SDS011;42227;6.376;-10.782;2024-03-07T05:40:27;71.60;;;29.58;;
56321;SDS011;42227;6.376;-10.782;2024-03-07T05:42:55;88.43;;;32.15;;
56321;SDS011;42227;6.376;-10.782;2024-03-07T05:45:23;62.30;;;27.35;;
56321;SDS011;42227;6.376;-10.782;2024-03-07T05:47:52;87.30;;;32.30;;
56321;SDS011;42227;6.376;-10.782;2024-03-07T05:50:20;97.60;;;35.47;;
56321;SDS011;42227;6.376;-10.782;2024-03-07T05:52:49;79.90;;;31.42;;
56321;SDS011;42227;6.376;-10.782;2024-03-07T05:55:17;95.20;;;34.28;;
56321;SDS011;42227;6.376;-10.782;2024-03-07T05:57:45;94.28;;;35.35;;
56321;SDS011;42227;6.376;-10.782;2024-03-07T06:00:14;89.05;;;33.25;;
56321;SDS011;42227;6.376;-10.782;2024-03-07T06:02:43;86.95;;;37.17;;
56321;SDS011;42227;6.376;-10.782;2024-03-07T06:05:11;76.18;;;33.25;;
56321;SDS011;42227;6.376;-10.782;2024-03-07T06:07:39;104.85;;;35.85;;
56321;SDS011;42227;6.376;-10.782;2024-03-07T06:10:08;90.00;;;37.10;;
56321;SDS011;42227;6.376;-10.782;2024-03-07T06:12:36;89.80;;;34.35;;
56321;SDS011;42227;6.376;-10.782;2024-03-07T06:15:09;98.18;;;37.38;;
56321;SDS011;42227;6.376;-10.782;2024-03-07T06:17:38;107.72;;;37.92;;
56321;SDS011;42227;6.376;-10.782;2024-03-07T06:20:06;100.55;;;35.10;;
56321;SDS011;42227;6.376;-10.782;2024-03-07T06:22:35;104.60;;;38.60;;
56321;SDS011;42227;6.376;-10.782;2024-03-07T06:25:03;109.53;;;36.75;;
56321;SDS011;42227;6.376;-10.782;2024-03-07T06:27:32;96.68;;;37.28;;
56321;SDS011;42227;6.376;-10.782;2024-03-07T06:30:01;88.90;;;36.88;;
56321;SDS011;42227;6.376;-10.782;2024-03-07T06:32:30;90.10;;;35.03;;
56321;SDS011;42227;6.376;-10.782;2024-03-07T06:34:58;106.90;;;34.42;;
56321;SDS011;42227;6.376;-10.782;2024-03-07T06:37:27;92.35;;;35.58;;
56321;SDS011;42227;6.376;-10.782;2024-03-07T06:39:55;96.70;;;38.67;;
56321;SDS011;42227;6.376;-10.782;2024-03-07T06:42:24;89.28;;;35.58;;
56321;SDS011;42227;6.376;-10.782;2024-03-07T06:44:52;109.32;;;38.20;;
56321;SDS011;42227;6.376;-10.782;2024-03-07T06:47:20;109.95;;;35.72;;
56321;SDS011;42227;6.376;-10.782;2024-03-07T06:49:49;113.25;;;39.53;;
56321;SDS011;42227;6.376;-10.782;2024-03-07T06:52:17;112.25;;;38.38;;
56321;SDS011;42227;6.376;-10.782;2024-03-07T06:54:46;90.05;;;38.75;;
56321;SDS011;42227;6.376;-10.782;2024-03-07T06:57:17;105.18;;;38.85;;
56321;SDS011;42227;6.376;-10.782;2024-03-07T06:59:45;86.00;;;34.42;;
56321;SDS011;42227;6.376;-10.782;2024-03-07T07:02:14;65.03;;;28.88;;
56321;SDS011;42227;6.376;-10.782;2024-03-07T07:04:42;115.00;;;35.63;;
56321;SDS011;42227;6.376;-10.782;2024-03-07T07:07:10;100.95;;;36.13;;
56321;SDS011;42227;6.376;-10.782;2024-03-07T07:09:40;99.65;;;39.42;;
56321;SDS011;42227;6.376;-10.782;2024-03-07T07:12:08;110.97;;;43.95;;
56321;SDS011;42227;6.376;-10.782;2024-03-07T07:14:37;107.80;;;41.47;;
56321;SDS011;42227;6.376;-10.782;2024-03-07T07:17:06;96.88;;;41.63;;
56321;SDS011;42227;6.376;-10.782;2024-03-07T07:19:37;93.55;;;45.10;;
56321;SDS011;42227;6.376;-10.782;2024-03-07T07:22:05;113.05;;;43.83;;
56321;SDS011;42227;6.376;-10.782;2024-03-07T07:24:34;118.57;;;43.95;;
56321;SDS011;42227;6.376;-10.782;2024-03-07T07:27:02;94.57;;;40.38;;
56321;SDS011;42227;6.376;-10.782;2024-03-07T07:29:31;98.68;;;38.88;;
56321;SDS011;42227;6.376;-10.782;2024-03-07T07:31:59;85.55;;;38.15;;
56321;SDS011;42227;6.376;-10.782;2024-03-07T07:34:27;93.30;;;34.78;;
56321;SDS011;42227;6.376;-10.782;2024-03-07T07:36:56;91.25;;;35.70;;
56321;SDS011;42227;6.376;-10.782;2024-03-07T07:39:24;102.57;;;37.70;;
56321;SDS011;42227;6.376;-10.782;2024-03-07T07:41:52;102.68;;;37.55;;
56321;SDS011;42227;6.376;-10.782;2024-03-07T07:44:21;95.88;;;38.00;;
56321;SDS011;42227;6.376;-10.782;2024-03-07T07:46:49;104.78;;;37.70;;
56321;SDS011;42227;6.376;-10.782;2024-03-07T07:49:18;89.35;;;34.60;;
56321;SDS011;42227;6.376;-10.782;2024-03-07T07:51:46;84.28;;;33.60;;
56321;SDS011;42227;6.376;-10.782;2024-03-07T07:54:19;81.28;;;34.42;;
56321;SDS011;42227;6.376;-10.782;2024-03-07T07:56:47;94.97;;;35.00;;
56321;SDS011;42227;6.376;-10.782;2024-03-07T07:59:16;102.63;;;41.70;;
56321;SDS011;42227;6.376;-10.782;2024-03-07T08:01:44;96.38;;;35.55;;
56321;SDS011;42227;6.376;-10.782;2024-03-07T08:04:12;111.22;;;40.60;;
56321;SDS011;42227;6.376;-10.782;2024-03-07T08:06:41;102.93;;;38.95;;
56321;SDS011;42227;6.376;-10.782;2024-03-07T08:09:09;104.18;;;41.55;;
56321;SDS011;42227;6.376;-10.782;2024-03-07T08:11:38;92.80;;;43.50;;
56321;SDS011;42227;6.376;-10.782;2024-03-07T08:14:06;93.93;;;35.70;;
56321;SDS011;42227;6.376;-10.782;2024-03-07T08:16:35;84.85;;;33.78;;
56321;SDS011;42227;6.376;-10.782;2024-03-07T08:19:06;92.90;;;36.13;;
56321;SDS011;42227;6.376;-10.782;2024-03-07T08:21:34;78.13;;;34.22;;
56321;SDS011;42227;6.376;-10.782;2024-03-07T08:24:03;86.68;;;32.50;;
56321;SDS011;42227;6.376;-10.782;2024-03-07T08:26:31;84.28;;;32.85;;
56321;SDS011;42227;6.376;-10.782;2024-03-07T08:29:00;97.90;;;34.47;;
56321;SDS011;42227;6.376;-10.782;2024-03-07T08:31:28;76.28;;;34.75;;
56321;SDS011;42227;6.376;-10.782;2024-03-07T08:33:57;85.95;;;32.50;;
56321;SDS011;42227;6.376;-10.782;2024-03-07T08:36:25;88.57;;;32.45;;
56321;SDS011;42227;6.376;-10.782;2024-03-07T08:38:53;70.75;;;29.23;;
56321;SDS011;42227;6.376;-10.782;2024-03-07T08:41:22;74.30;;;30.80;;
56321;SDS011;42227;6.376;-10.782;2024-03-07T08:43:50;83.82;;;29.52;;
56321;SDS011;42227;6.376;-10.782;2024-03-07T08:46:19;63.53;;;26.33;;
56321;SDS011;42227;6.376;-10.782;2024-03-07T08:48:47;65.57;;;29.13;;
56321;SDS011;42227;6.376;-10.782;2024-03-07T08:51:15;90.05;;;30.05;;
56321;SDS011;42227;6.376;-10.782;2024-03-07T08:53:44;81.25;;;28.20;;
56321;SDS011;42227;6.376;-10.782;2024-03-07T08:56:13;70.03;;;28.83;;
56321;SDS011;42227;6.376;-10.782;2024-03-07T08:58:41;65.63;;;26.92;;
56321;SDS011;42227;6.376;-10.782;2024-03-07T09:01:09;81.85;;;26.23;;
56321;SDS011;42227;6.376;-10.782;2024-03-07T09:03:38;83.07;;;27.17;;
56321;SDS011;42227;6.376;-10.782;2024-03-07T09:06:06;91.80;;;27.40;;
56321;SDS011;42227;6.376;-10.782;2024-03-07T09:08:35;63.03;;;28.30;;
56321;SDS011;42227;6.376;-10.782;2024-03-07T09:11:03;84.80;;;30.30;;
56321;SDS011;42227;6.376;-10.782;2024-03-07T09:13:32;73.43;;;26.63;;
56321;SDS011;42227;6.376;-10.782;2024-03-07T09:16:00;75.18;;;29.02;;
56321;SDS011;42227;6.376;-10.782;2024-03-07T09:18:28;74.85;;;28.88;;
56321;SDS011;42227;6.376;-10.782;2024-03-07T09:20:57;90.20;;;30.65;;
56321;SDS011;42227;6.376;-10.782;2024-03-07T09:23:25;74.35;;;26.48;;
56321;SDS011;42227;6.376;-10.782;2024-03-07T09:25:54;81.82;;;27.80;;
56321;SDS011;42227;6.376;-10.782;2024-03-07T09:28:22;69.10;;;26.15;;
56321;SDS011;42227;6.376;-10.782;2024-03-07T09:30:51;58.95;;;25.33;;
56321;SDS011;42227;6.376;-10.782;2024-03-07T09:33:19;78.97;;;27.75;;
56321;SDS011;42227;6.376;-10.782;2024-03-07T09:35:51;67.55;;;28.08;;
56321;SDS011;42227;6.376;-10.782;2024-03-07T09:38:20;62.60;;;25.52;;
56321;SDS011;42227;6.376;-10.782;2024-03-07T09:40:48;55.53;;;25.00;;
56321;SDS011;42227;6.376;-10.782;2024-03-07T09:43:16;72.30;;;27.27;;
56321;SDS011;42227;6.376;-10.782;2024-03-07T09:45:45;84.20;;;27.33;;
56321;SDS011;42227;6.376;-10.782;2024-03-07T09:48:15;66.68;;;24.75;;
56321;SDS011;42227;6.376;-10.782;2024-03-07T09:50:44;79.43;;;27.92;;
56321;SDS011;42227;6.376;-10.782;2024-03-07T09:53:14;65.05;;;29.80;;
56321;SDS011;42227;6.376;-10.782;2024-03-07T09:55:46;82.75;;;33.40;;
56321;SDS011;42227;6.376;-10.782;2024-03-07T09:58:16;72.80;;;30.67;;
56321;SDS011;42227;6.376;-10.782;2024-03-07T10:00:47;89.88;;;33.25;;
56321;SDS011;42227;6.376;-10.782;2024-03-07T10:03:16;68.47;;;29.60;;
56321;SDS011;42227;6.376;-10.782;2024-03-07T10:05:48;79.05;;;25.27;;
56321;SDS011;42227;6.376;-10.782;2024-03-07T10:08:16;93.28;;;33.63;;
56321;SDS011;42227;6.376;-10.782;2024-03-07T10:10:45;73.18;;;30.02;;
56321;SDS011;42227;6.376;-10.782;2024-03-07T10:13:14;66.70;;;25.45;;
56321;SDS011;42227;6.376;-10.782;2024-03-07T10:15:43;69.60;;;26.58;;
56321;SDS011;42227;6.376;-10.782;2024-03-07T10:18:12;73.15;;;29.10;;
56321;SDS011;42227;6.376;-10.782;2024-03-07T10:20:42;88.90;;;32.80;;
56321;SDS011;42227;6.376;-10.782;2024-03-07T10:23:11;62.28;;;25.00;;
56321;SDS011;42227;6.376;-10.782;2024-03-07T10:25:39;56.05;;;21.25;;
56321;SDS011;42227;6.376;-10.782;2024-03-07T10:28:09;101.22;;;42.55;;
56321;SDS011;42227;6.376;-10.782;2024-03-07T10:30:40;74.65;;;40.92;;
56321;SDS011;42227;6.376;-10.782;2024-03-07T10:33:12;84.43;;;33.10;;
56321;SDS011;42227;6.376;-10.782;2024-03-07T10:35:41;88.72;;;28.85;;
56321;SDS011;42227;6.376;-10.782;2024-03-07T10:38:09;91.82;;;46.90;;
56321;SDS011;42227;6.376;-10.782;2024-03-07T10:43:10;65.22;;;26.95;;
56321;SDS011;42227;6.376;-10.782;2024-03-07T10:45:43;65.85;;;28.58;;
56321;SDS011;42227;6.376;-10.782;2024-03-07T10:48:13;68.03;;;27.67;;
56321;SDS011;42227;6.376;-10.782;2024-03-07T10:56:42;96.90;;;37.88;;
56321;SDS011;42227;6.376;-10.782;2024-03-07T10:59:39;64.97;;;26.73;;
56321;SDS011;42227;6.376;-10.782;2024-03-07T11:04:50;66.93;;;28.23;;
56321;SDS011;42227;6.376;-10.782;2024-03-07T11:07:20;102.20;;;53.28;;
56321;SDS011;42227;6.376;-10.782;2024-03-07T11:12:22;98.57;;;51.22;;
56321;SDS011;42227;6.376;-10.782;2024-03-07T11:14:52;86.43;;;38.00;;
56321;SDS011;42227;6.376;-10.782;2024-03-07T11:17:22;89.20;;;28.47;;
56321;SDS011;42227;6.376;-10.782;2024-03-07T11:19:51;81.93;;;29.23;;
56321;SDS011;42227;6.376;-10.782;2024-03-07T11:22:29;67.28;;;27.20;;
56321;SDS011;42227;6.376;-10.782;2024-03-07T11:25:04;83.15;;;29.20;;
56321;SDS011;42227;6.376;-10.782;2024-03-07T11:27:39;55.35;;;24.00;;
56321;SDS011;42227;6.376;-10.782;2024-03-07T11:30:18;72.05;;;28.15;;
56321;SDS011;42227;6.376;-10.782;2024-03-07T11:32:46;71.10;;;26.75;;
56321;SDS011;42227;6.376;-10.782;2024-03-07T11:35:15;66.18;;;22.75;;
56321;SDS011;42227;6.376;-10.782;2024-03-07T11:37:43;104.20;;;41.50;;
56321;SDS011;42227;6.376;-10.782;2024-03-07T11:40:12;83.90;;;38.80;;
56321;SDS011;42227;6.376;-10.782;2024-03-07T11:42:43;81.13;;;34.55;;
56321;SDS011;42227;6.376;-10.782;2024-03-07T11:45:13;76.13;;;33.45;;
56321;SDS011;42227;6.376;-10.782;2024-03-07T11:47:42;79.13;;;29.48;;
56321;SDS011;42227;6.376;-10.782;2024-03-07T11:50:11;84.70;;;29.30;;
56321;SDS011;42227;6.376;-10.782;2024-03-07T11:52:39;70.90;;;27.38;;
56321;SDS011;42227;6.376;-10.782;2024-03-07T11:55:09;68.53;;;23.88;;
56321;SDS011;42227;6.376;-10.782;2024-03-07T11:57:38;85.90;;;35.03;;
56321;SDS011;42227;6.376;-10.782;2024-03-07T12:00:06;59.38;;;25.50;;
56321;SDS011;42227;6.376;-10.782;2024-03-07T12:02:40;68.85;;;30.73;;
56321;SDS011;42227;6.376;-10.782;2024-03-07T12:05:09;72.13;;;31.92;;
56321;SDS011;42227;6.376;-10.782;2024-03-07T12:07:37;88.45;;;33.10;;
56321;SDS011;42227;6.376;-10.782;2024-03-07T12:10:06;68.50;;;27.25;;
56321;SDS011;42227;6.376;-10.782;2024-03-07T12:12:35;76.68;;;27.35;;
56321;SDS011;42227;6.376;-10.782;2024-03-07T12:15:04;73.72;;;27.52;;
56321;SDS011;42227;6.376;-10.782;2024-03-07T12:17:34;84.47;;;27.55;;
56321;SDS011;42227;6.376;-10.782;2024-03-07T12:20:03;71.03;;;27.25;;
56321;SDS011;42227;6.376;-10.782;2024-03-07T12:22:32;69.70;;;28.52;;
56321;SDS011;42227;6.376;-10.782;2024-03-07T12:25:03;71.63;;;31.02;;
56321;SDS011;42227;6.376;-10.782;2024-03-07T12:27:32;67.15;;;26.42;;
56321;SDS011;42227;6.376;-10.782;2024-03-07T12:30:00;72.15;;;26.17;;
56321;SDS011;42227;6.376;-10.782;2024-03-07T12:32:29;77.85;;;27.83;;
56321;SDS011;42227;6.376;-10.782;2024-03-07T12:34:57;78.32;;;26.10;;
56321;SDS011;42227;6.376;-10.782;2024-03-07T12:37:26;62.92;;;25.55;;
56321;SDS011;42227;6.376;-10.782;2024-03-07T12:39:54;77.03;;;30.27;;
56321;SDS011;42227;6.376;-10.782;2024-03-07T12:42:23;69.18;;;25.45;;
56321;SDS011;42227;6.376;-10.782;2024-03-07T12:44:51;83.78;;;29.45;;
56321;SDS011;42227;6.376;-10.782;2024-03-07T12:47:20;72.82;;;36.10;;
56321;SDS011;42227;6.376;-10.782;2024-03-07T12:49:51;59.77;;;26.50;;
56321;SDS011;42227;6.376;-10.782;2024-03-07T12:52:19;79.20;;;29.73;;
56321;SDS011;42227;6.376;-10.782;2024-03-07T12:54:48;62.33;;;27.33;;
56321;SDS011;42227;6.376;-10.782;2024-03-07T12:57:17;68.93;;;26.38;;
56321;SDS011;42227;6.376;-10.782;2024-03-07T12:59:45;75.90;;;26.33;;
56321;SDS011;42227;6.376;-10.782;2024-03-07T13:02:13;81.82;;;26.98;;
56321;SDS011;42227;6.376;-10.782;2024-03-07T13:04:42;87.43;;;30.83;;
56321;SDS011;42227;6.376;-10.782;2024-03-07T13:07:11;67.18;;;25.02;;
56321;SDS011;42227;6.376;-10.782;2024-03-07T13:09:40;74.78;;;25.65;;
56321;SDS011;42227;6.376;-10.782;2024-03-07T13:12:08;68.30;;;26.27;;
56321;SDS011;42227;6.376;-10.782;2024-03-07T13:14:37;69.15;;;27.42;;
56321;SDS011;42227;6.376;-10.782;2024-03-07T13:17:05;85.00;;;27.75;;
56321;SDS011;42227;6.376;-10.782;2024-03-07T13:19:34;78.68;;;27.05;;
56321;SDS011;42227;6.376;-10.782;2024-03-07T13:22:02;57.88;;;25.77;;
56321;SDS011;42227;6.376;-10.782;2024-03-07T13:24:31;69.32;;;23.95;;
56321;SDS011;42227;6.376;-10.782;2024-03-07T13:26:59;75.50;;;26.77;;
56321;SDS011;42227;6.376;-10.782;2024-03-07T13:29:27;77.53;;;26.67;;
56321;SDS011;42227;6.376;-10.782;2024-03-07T13:31:56;74.72;;;26.88;;
56321;SDS011;42227;6.376;-10.782;2024-03-07T13:34:24;63.35;;;21.75;;
56321;SDS011;42227;6.376;-10.782;2024-03-07T13:36:53;72.75;;;26.73;;
56321;SDS011;42227;6.376;-10.782;2024-03-07T13:39:21;71.82;;;27.02;;
56321;SDS011;42227;6.376;-10.782;2024-03-07T13:41:50;57.33;;;24.35;;
56321;SDS011;42227;6.376;-10.782;2024-03-07T13:44:24;82.82;;;25.45;;
56321;SDS011;42227;6.376;-10.782;2024-03-07T13:46:55;57.55;;;23.70;;
56321;SDS011;42227;6.376;-10.782;2024-03-07T13:49:24;70.20;;;26.50;;
56321;SDS011;42227;6.376;-10.782;2024-03-07T13:51:54;70.50;;;24.70;;
56321;SDS011;42227;6.376;-10.782;2024-03-07T13:54:22;69.28;;;23.92;;
56321;SDS011;42227;6.376;-10.782;2024-03-07T14:02:56;73.20;;;29.48;;
56321;SDS011;42227;6.376;-10.782;2024-03-07T14:05:52;66.40;;;23.38;;
56321;SDS011;42227;6.376;-10.782;2024-03-07T14:26:38;74.45;;;23.90;;
56321;SDS011;42227;6.376;-10.782;2024-03-07T14:29:26;61.47;;;22.88;;
56321;SDS011;42227;6.376;-10.782;2024-03-07T14:32:15;61.88;;;23.98;;
56321;SDS011;42227;6.376;-10.782;2024-03-07T14:37:52;71.20;;;24.13;;
56321;SDS011;42227;6.376;-10.782;2024-03-07T14:40:29;81.07;;;26.75;;
56321;SDS011;42227;6.376;-10.782;2024-03-07T14:42:58;64.00;;;21.80;;
56321;SDS011;42227;6.376;-10.782;2024-03-07T14:45:38;70.60;;;24.23;;
56321;SDS011;42227;6.376;-10.782;2024-03-07T14:48:08;52.10;;;21.48;;
56321;SDS011;42227;6.376;-10.782;2024-03-07T14:50:40;74.15;;;26.05;;
56321;SDS011;42227;6.376;-10.782;2024-03-07T14:53:11;77.68;;;27.58;;
56321;SDS011;42227;6.376;-10.782;2024-03-07T14:55:40;51.80;;;22.10;;
56321;SDS011;42227;6.376;-10.782;2024-03-07T14:58:08;63.08;;;21.92;;
56321;SDS011;42227;6.376;-10.782;2024-03-07T15:00:38;67.90;;;26.00;;
56321;SDS011;42227;6.376;-10.782;2024-03-07T15:03:11;74.28;;;24.55;;